Pleasant Hill, Ohio
Current Conditions -  °F | °C
As of 11:56 AM on Thursday 27 Nov 2014 (Local Time) from KDAY Reporting Station
Overcast Overcast  
Wind Chill: 23°   Ceiling: 2900
Heat Index: 33°   Visibility: 10mi
Dew Point: 21°   Wind: 14mph
Humidity: 61%   Direction: 310°NW
Pressure: 30.24"   Gusts: NA
Location:  40.05°N, 84.34°W
Report Text: KDAY 271656Z 31012KT 10SM BKN029 OVC035 01/M06 A3024 RMK AO2 SLP251 T00061061
Loading
Personal Weather Stations






























Interactive Weather Map New forecast layout! Learn more

10-Day Weather Forecast

Advertisements
Track Severe Weather on mobile